Rogers, Louisiana
Current Conditions -  °F | °C
As of 6:53 AM on Friday 28 Nov 2014 (Local Time) from KESF Reporting Station
Clear Clear  
Wind Chill: 30°   Ceiling: Unl
Heat Index: 30°   Visibility: 10mi
Dew Point: 27°   Wind: 3mph
Humidity: 88%   Direction: 130°SE
Pressure: 30.43"   Gusts: NA
Location:  31.6831°N, 92.083°W
Report Text: KESF 281253Z AUTO 13003KT 10SM CLR M01/M03 A3043 RMK AO2 SLP302 I1000 T10111028
Loading
Personal Weather Stations






























Interactive Weather Map New forecast layout! Learn more

10-Day Weather Forecast

Advertisements
Track Severe Weather on mobile